createdAt,value
2018-06-17T00:00:24.094Z,17.51
2018-06-17T00:01:52.584Z,17.49
2018-06-17T00:03:18.910Z,17.47
2018-06-17T00:04:47.526Z,17.43
2018-06-17T00:06:14.913Z,17.39
2018-06-17T00:07:42.540Z,17.34
2018-06-17T00:09:09.953Z,17.30
2018-06-17T00:10:36.351Z,17.27
2018-06-17T00:12:03.632Z,17.24
2018-06-17T00:13:30.959Z,17.22
2018-06-17T00:14:58.528Z,17.23
2018-06-17T00:16:26.118Z,17.26
2018-06-17T00:17:54.359Z,17.29
2018-06-17T00:19:20.872Z,17.30
2018-06-17T00:20:48.538Z,17.32
2018-06-17T00:22:16.007Z,17.36
2018-06-17T00:23:44.535Z,17.39
2018-06-17T00:25:10.810Z,17.41
2018-06-17T00:26:38.480Z,17.44
2018-06-17T00:28:07.150Z,17.45
2018-06-17T00:29:33.476Z,17.46
2018-06-17T00:31:02.176Z,17.44
2018-06-17T00:32:28.515Z,17.43
2018-06-17T00:33:55.941Z,17.42
2018-06-17T00:35:24.489Z,17.43
2018-06-17T00:36:51.852Z,17.44
2018-06-17T00:38:18.342Z,17.45
2018-06-17T00:39:45.685Z,17.47
2018-06-17T00:41:13.176Z,17.48
2018-06-17T00:42:40.540Z,17.48
2018-06-17T00:44:09.135Z,17.46
2018-06-17T00:45:35.602Z,17.47
2018-06-17T00:47:02.962Z,17.49
2018-06-17T00:48:31.475Z,17.52
2018-06-17T00:49:57.929Z,17.53
2018-06-17T00:51:25.399Z,17.55
2018-06-17T00:52:52.719Z,17.57
2018-06-17T00:54:20.002Z,17.58
2018-06-17T00:55:48.638Z,17.57
2018-06-17T00:57:16.229Z,17.54
2018-06-17T00:58:42.729Z,17.52
2018-06-17T01:00:09.891Z,17.43
2018-06-17T01:01:37.541Z,17.32
2018-06-17T01:03:06.180Z,17.20
2018-06-17T01:04:32.725Z,17.13
2018-06-17T01:06:01.207Z,17.09
2018-06-17T01:07:28.793Z,17.06
2018-06-17T01:08:56.424Z,17.05
2018-06-17T01:10:22.937Z,17.02
2018-06-17T01:11:51.466Z,16.99
2018-06-17T01:13:17.786Z,16.96
2018-06-17T01:14:45.450Z,16.91
2018-06-17T01:16:13.940Z,16.86
2018-06-17T01:17:40.388Z,16.83
2018-06-17T01:19:07.817Z,16.81
2018-06-17T01:20:36.481Z,16.79
2018-06-17T01:22:02.823Z,16.76
2018-06-17T01:23:31.353Z,16.69
2018-06-17T01:24:59.008Z,16.63
2018-06-17T01:26:26.535Z,16.57
2018-06-17T01:27:53.068Z,16.52
2018-06-17T01:29:20.590Z,16.47
2018-06-17T01:30:47.851Z,16.47
2018-06-17T01:32:15.269Z,16.47
2018-06-17T01:33:42.881Z,16.45
2018-06-17T01:35:10.273Z,16.45
2018-06-17T01:36:37.668Z,16.46
2018-06-17T01:38:06.237Z,16.51
2018-06-17T01:39:32.656Z,16.54
2018-06-17T01:41:00.105Z,16.56
2018-06-17T01:42:28.754Z,16.56
2018-06-17T01:43:55.015Z,16.56
2018-06-17T01:45:23.670Z,16.56
2018-06-17T01:46:49.842Z,16.56
2018-06-17T01:48:17.373Z,16.55
2018-06-17T01:49:44.770Z,16.53
2018-06-17T01:51:12.352Z,16.49
2018-06-17T01:52:42.877Z,16.46
2018-06-17T01:54:07.174Z,16.48
2018-06-17T01:55:34.555Z,16.51
2018-06-17T01:57:02.070Z,16.50
2018-06-17T01:58:29.428Z,16.46
2018-06-17T01:59:56.865Z,16.41
2018-06-17T02:01:24.553Z,16.35
2018-06-17T02:02:51.962Z,16.27
2018-06-17T02:04:19.306Z,16.22
2018-06-17T02:05:47.853Z,16.17
2018-06-17T02:07:14.990Z,16.15
2018-06-17T02:08:42.357Z,16.13
2018-06-17T02:10:08.833Z,16.12
2018-06-17T02:11:37.401Z,16.10
2018-06-17T02:13:03.719Z,16.07
2018-06-17T02:14:32.261Z,16.05
2018-06-17T02:15:59.814Z,16.00
2018-06-17T02:17:27.222Z,15.96
2018-06-17T02:18:54.667Z,15.89
2018-06-17T02:20:20.701Z,15.84
2018-06-17T02:21:48.020Z,15.82
2018-06-17T02:23:16.574Z,15.81
2018-06-17T02:24:43.903Z,15.79
2018-06-17T02:26:11.229Z,15.78
2018-06-17T02:27:38.649Z,15.78
2018-06-17T02:29:05.079Z,15.78
2018-06-17T02:30:32.557Z,15.78
2018-06-17T02:31:59.738Z,15.78
2018-06-17T02:33:27.196Z,15.79
2018-06-17T02:34:55.552Z,15.81
2018-06-17T02:36:22.999Z,15.83
2018-06-17T02:37:49.450Z,15.88
2018-06-17T02:39:18.036Z,15.91
2018-06-17T02:40:44.407Z,15.95
2018-06-17T02:42:12.829Z,15.98
2018-06-17T02:43:40.333Z,16.00
2018-06-17T02:45:07.743Z,16.03
2018-06-17T02:46:33.985Z,16.07
2018-06-17T02:48:04.443Z,16.12
2018-06-17T02:49:30.041Z,16.19
2018-06-17T02:50:57.578Z,16.26
2018-06-17T02:52:23.992Z,16.31
2018-06-17T02:53:51.411Z,16.37
2018-06-17T02:55:18.963Z,16.42
2018-06-17T02:56:47.158Z,16.46
2018-06-17T02:58:13.598Z,16.52
2018-06-17T02:59:42.200Z,16.55
2018-06-17T03:01:09.670Z,16.53
2018-06-17T03:02:36.899Z,16.55
2018-06-17T03:04:03.463Z,16.57
2018-06-17T03:05:30.905Z,16.58
2018-06-17T03:06:58.377Z,16.61
2018-06-17T03:08:25.884Z,16.66
2018-06-17T03:09:54.263Z,16.72
2018-06-17T03:11:20.626Z,16.79
2018-06-17T03:12:49.279Z,16.85
2018-06-17T03:14:15.682Z,16.90
2018-06-17T03:15:44.072Z,16.96
2018-06-17T03:17:11.715Z,17.03
2018-06-17T03:18:38.172Z,17.09
2018-06-17T03:20:06.582Z,17.15
2018-06-17T03:21:32.948Z,17.21
2018-06-17T03:23:01.517Z,17.26
2018-06-17T03:24:27.757Z,17.31
2018-06-17T03:25:56.518Z,17.35
2018-06-17T03:27:23.862Z,17.39
2018-06-17T03:28:50.294Z,17.43
2018-06-17T03:30:18.817Z,17.46
2018-06-17T03:31:46.150Z,17.51
2018-06-17T03:33:12.667Z,17.54
2018-06-17T03:34:41.195Z,17.57
2018-06-17T03:36:07.535Z,17.60
2018-06-17T03:37:34.943Z,17.62
2018-06-17T03:39:02.383Z,17.63
2018-06-17T03:40:29.769Z,17.63
2018-06-17T03:41:58.452Z,17.63
2018-06-17T03:43:24.866Z,17.63
2018-06-17T03:44:53.362Z,17.64
2018-06-17T03:46:19.777Z,17.65
2018-06-17T03:47:47.085Z,17.66
2018-06-17T03:49:14.617Z,17.67
2018-06-17T03:50:42.893Z,17.67
2018-06-17T03:52:09.378Z,17.67
2018-06-17T03:53:36.920Z,17.68
2018-06-17T03:55:05.466Z,17.69
2018-06-17T03:56:31.924Z,17.69
2018-06-17T03:57:59.389Z,17.69
2018-06-17T03:59:27.755Z,17.68
2018-06-17T04:00:54.017Z,17.67
2018-06-17T04:02:22.578Z,17.65
2018-06-17T04:03:48.845Z,17.62
2018-06-17T04:05:16.302Z,17.59
2018-06-17T04:06:44.715Z,17.56
2018-06-17T04:08:12.103Z,17.54
2018-06-17T04:09:38.560Z,17.52
2018-06-17T04:11:06.802Z,17.49
2018-06-17T04:12:34.425Z,17.46
2018-06-17T04:14:01.810Z,17.45
2018-06-17T04:15:28.118Z,17.44
2018-06-17T04:16:55.584Z,17.44
2018-06-17T04:18:24.271Z,17.44
2018-06-17T04:19:51.462Z,17.45
2018-06-17T04:21:17.883Z,17.46
2018-06-17T04:22:46.443Z,17.47
2018-06-17T04:24:12.622Z,17.48
2018-06-17T04:25:40.052Z,17.50
2018-06-17T04:27:08.255Z,17.51
2018-06-17T04:28:34.357Z,17.53
2018-06-17T04:30:01.345Z,17.55
2018-06-17T04:31:30.156Z,17.56
2018-06-17T04:32:56.648Z,17.56
2018-06-17T04:34:25.028Z,17.55
2018-06-17T04:35:51.405Z,17.54
2018-06-17T04:37:18.980Z,17.53
2018-06-17T04:38:46.507Z,17.54
2018-06-17T04:40:13.869Z,17.56
2018-06-17T04:41:41.124Z,17.58
2018-06-17T04:43:08.719Z,17.60
2018-06-17T04:44:36.034Z,17.61
2018-06-17T04:46:03.265Z,17.62
2018-06-17T04:47:30.767Z,17.62
2018-06-17T04:48:58.471Z,17.63
2018-06-17T04:50:26.967Z,17.61
2018-06-17T04:51:53.175Z,17.56
2018-06-17T04:53:20.725Z,17.50
2018-06-17T04:54:49.004Z,17.45
2018-06-17T04:56:15.336Z,17.42
2018-06-17T04:57:43.742Z,17.42
2018-06-17T04:59:11.083Z,17.43
2018-06-17T05:00:37.435Z,17.46
2018-06-17T05:02:04.691Z,17.50
2018-06-17T05:03:32.173Z,17.52
2018-06-17T05:05:00.638Z,17.54
2018-06-17T05:06:26.933Z,17.56
2018-06-17T05:07:54.542Z,17.59
2018-06-17T05:09:22.987Z,17.61
2018-06-17T05:10:50.594Z,17.63
2018-06-17T05:12:18.059Z,17.65
2018-06-17T05:13:44.575Z,17.67
2018-06-17T05:15:11.925Z,17.69
2018-06-17T05:16:40.423Z,17.73
2018-06-17T05:18:07.584Z,17.75
2018-06-17T05:19:33.852Z,17.77
2018-06-17T05:21:02.316Z,17.80
2018-06-17T05:22:28.788Z,17.83
2018-06-17T05:23:57.342Z,17.86
2018-06-17T05:25:24.912Z,17.88
2018-06-17T05:26:51.194Z,17.91
2018-06-17T05:28:18.647Z,17.93
2018-06-17T05:29:47.162Z,17.97
2018-06-17T05:31:14.535Z,18.00
2018-06-17T05:32:40.914Z,18.03
2018-06-17T05:34:08.420Z,18.06
2018-06-17T05:35:35.986Z,18.09
2018-06-17T05:37:03.532Z,18.13
2018-06-17T05:38:31.967Z,18.17
2018-06-17T05:39:59.391Z,18.20
2018-06-17T05:41:27.023Z,18.22
2018-06-17T05:42:53.319Z,18.23
2018-06-17T05:44:20.843Z,18.23
2018-06-17T05:45:49.643Z,18.23
2018-06-17T05:47:15.943Z,18.21
2018-06-17T05:48:43.459Z,18.17
2018-06-17T05:50:10.846Z,18.16
2018-06-17T05:51:38.234Z,18.15
2018-06-17T05:53:05.922Z,18.16
2018-06-17T05:54:34.312Z,18.17
2018-06-17T05:56:00.637Z,18.15
2018-06-17T05:57:28.300Z,18.14
2018-06-17T05:58:56.829Z,18.15
2018-06-17T06:00:23.156Z,18.16
2018-06-17T06:01:50.767Z,18.18
2018-06-17T06:03:19.182Z,18.19
2018-06-17T06:04:46.566Z,18.17
2018-06-17T06:06:12.832Z,18.16
2018-06-17T06:07:41.366Z,18.15
2018-06-17T06:09:07.798Z,18.10
2018-06-17T06:10:35.103Z,18.09
2018-06-17T06:12:02.487Z,18.09
2018-06-17T06:13:30.742Z,18.10
2018-06-17T06:14:58.264Z,18.08
2018-06-17T06:16:25.694Z,18.05
2018-06-17T06:17:52.001Z,18.03
2018-06-17T06:19:20.575Z,18.01
2018-06-17T06:20:47.020Z,18.02
2018-06-17T06:22:15.162Z,18.03
2018-06-17T06:23:41.625Z,18.06
2018-06-17T06:25:10.090Z,18.09
2018-06-17T06:26:36.268Z,18.12
2018-06-17T06:28:04.828Z,18.17
2018-06-17T06:29:32.305Z,18.26
2018-06-17T06:30:58.760Z,18.36
2018-06-17T06:32:26.642Z,18.46
2018-06-17T06:33:53.923Z,18.57
2018-06-17T06:35:22.544Z,18.68
2018-06-17T06:36:49.090Z,18.77
2018-06-17T06:38:16.563Z,18.88
2018-06-17T06:39:45.098Z,18.98
2018-06-17T06:41:12.489Z,19.03
2018-06-17T06:42:39.988Z,19.05
2018-06-17T06:44:06.635Z,19.03
2018-06-17T06:45:34.090Z,19.02
2018-06-17T06:47:02.613Z,19.03
2018-06-17T06:48:28.268Z,19.14
2018-06-17T06:49:56.780Z,19.41
2018-06-17T06:51:24.264Z,19.77
2018-06-17T06:52:51.734Z,20.13
2018-06-17T06:54:19.099Z,20.40
2018-06-17T06:55:46.554Z,20.56
2018-06-17T06:57:13.602Z,20.66
2018-06-17T06:58:39.976Z,20.71
2018-06-17T07:00:07.591Z,20.75
2018-06-17T07:01:35.213Z,20.80
2018-06-17T07:03:02.740Z,20.85
2018-06-17T07:04:31.520Z,20.84
2018-06-17T07:05:58.128Z,20.81
2018-06-17T07:07:26.664Z,20.79
2018-06-17T07:08:53.064Z,20.81
2018-06-17T07:10:21.634Z,20.83
2018-06-17T07:11:49.122Z,20.80
2018-06-17T07:13:14.711Z,20.86
2018-06-17T07:14:43.398Z,20.94
2018-06-17T07:16:09.770Z,20.98
2018-06-17T07:17:37.288Z,20.98
2018-06-17T07:19:04.759Z,20.96
2018-06-17T07:20:32.761Z,20.92
2018-06-17T07:21:58.969Z,20.87
2018-06-17T07:23:26.564Z,20.78
2018-06-17T07:24:54.981Z,20.63
2018-06-17T07:26:22.457Z,20.43
2018-06-17T07:27:48.782Z,20.26
2018-06-17T07:29:17.265Z,20.12
2018-06-17T07:30:44.460Z,19.96
2018-06-17T07:32:10.940Z,19.93
2018-06-17T07:33:38.626Z,20.00
2018-06-17T07:35:06.257Z,20.10
2018-06-17T07:36:33.768Z,20.19
2018-06-17T07:38:02.110Z,20.30
2018-06-17T07:39:29.030Z,20.39
2018-06-17T07:40:55.374Z,20.45
2018-06-17T07:42:23.925Z,20.50
2018-06-17T07:43:50.057Z,20.58
2018-06-17T07:45:17.392Z,20.70
2018-06-17T07:46:45.122Z,20.82
2018-06-17T07:48:12.356Z,20.86
2018-06-17T07:49:40.992Z,20.86
2018-06-17T07:51:08.612Z,20.87
2018-06-17T07:52:34.948Z,20.87
2018-06-17T07:54:02.456Z,20.89
2018-06-17T07:55:31.383Z,20.91
2018-06-17T07:56:58.028Z,20.93
2018-06-17T07:58:25.053Z,20.99
2018-06-17T07:59:52.760Z,21.04
2018-06-17T08:01:21.106Z,21.08
2018-06-17T08:02:47.614Z,21.16
2018-06-17T08:04:15.151Z,21.26
2018-06-17T08:05:42.690Z,21.33
2018-06-17T08:07:10.250Z,21.36
2018-06-17T08:08:37.662Z,21.40
2018-06-17T08:10:05.205Z,21.43
2018-06-17T08:11:33.879Z,21.46
2018-06-17T08:13:00.144Z,21.48
2018-06-17T08:14:28.681Z,21.45
2018-06-17T08:15:55.199Z,21.39
2018-06-17T08:17:22.576Z,21.37
2018-06-17T08:18:49.944Z,21.34
2018-06-17T08:20:17.665Z,21.32
2018-06-17T08:21:46.151Z,21.31
2018-06-17T08:23:12.861Z,21.29
2018-06-17T08:24:40.326Z,21.23
2018-06-17T08:26:07.764Z,21.16
2018-06-17T08:27:35.210Z,21.10
2018-06-17T08:29:03.635Z,21.08
2018-06-17T08:30:30.197Z,21.10
2018-06-17T08:31:58.633Z,21.13
2018-06-17T08:33:25.891Z,21.17
2018-06-17T08:34:52.443Z,21.19
2018-06-17T08:36:19.963Z,21.21
2018-06-17T08:37:48.381Z,21.27
2018-06-17T08:39:14.845Z,21.31
2018-06-17T08:40:43.541Z,21.34
2018-06-17T08:42:10.999Z,21.36
2018-06-17T08:43:37.548Z,21.39
2018-06-17T08:45:06.175Z,21.39
2018-06-17T08:46:32.765Z,21.36
2018-06-17T08:48:01.072Z,21.30
2018-06-17T08:49:27.593Z,21.31
2018-06-17T08:50:56.190Z,21.36
2018-06-17T08:52:22.656Z,21.44
2018-06-17T08:53:51.324Z,21.52
2018-06-17T08:55:18.630Z,21.60
2018-06-17T08:56:44.963Z,21.73
2018-06-17T08:58:12.476Z,21.87
2018-06-17T08:59:40.047Z,21.99
2018-06-17T09:01:07.543Z,22.13
2018-06-17T09:02:35.041Z,22.26
2018-06-17T09:04:03.684Z,22.31
2018-06-17T09:05:30.178Z,22.40
2018-06-17T09:06:58.584Z,22.46
2018-06-17T09:08:25.096Z,22.51
2018-06-17T09:09:52.661Z,22.52
2018-06-17T09:11:20.212Z,22.49
2018-06-17T09:12:48.744Z,22.43
2018-06-17T09:14:16.168Z,22.29
2018-06-17T09:15:43.783Z,22.19
2018-06-17T09:17:11.476Z,22.14
2018-06-17T09:18:38.066Z,22.16
2018-06-17T09:20:05.349Z,22.19
2018-06-17T09:21:33.027Z,22.22
2018-06-17T09:23:00.701Z,22.25
2018-06-17T09:24:28.377Z,22.26
2018-06-17T09:25:55.910Z,22.31
2018-06-17T09:27:23.504Z,22.34
2018-06-17T09:28:51.896Z,22.38
2018-06-17T09:30:18.522Z,22.38
2018-06-17T09:31:45.982Z,22.39
2018-06-17T09:33:13.586Z,22.47
2018-06-17T09:34:41.239Z,22.58
2018-06-17T09:36:08.710Z,22.66
2018-06-17T09:37:37.324Z,22.73
2018-06-17T09:39:04.119Z,22.80
2018-06-17T09:40:31.728Z,22.88
2018-06-17T09:41:59.305Z,22.92
2018-06-17T09:43:26.787Z,22.93
2018-06-17T09:44:55.090Z,22.96
2018-06-17T09:46:21.630Z,22.97
2018-06-17T09:47:50.053Z,22.94
2018-06-17T09:49:17.557Z,22.88
2018-06-17T09:50:45.143Z,22.82
2018-06-17T09:52:12.692Z,22.71
2018-06-17T09:53:39.125Z,22.59
2018-06-17T09:55:07.761Z,22.48
2018-06-17T09:56:34.066Z,22.27
2018-06-17T09:58:01.874Z,22.15
2018-06-17T09:59:29.402Z,22.01
2018-06-17T10:00:57.002Z,21.91
2018-06-17T10:02:25.559Z,21.83
2018-06-17T10:03:51.977Z,21.75
2018-06-17T10:05:20.473Z,21.68
2018-06-17T10:06:47.964Z,21.65
2018-06-17T10:08:14.247Z,21.69
2018-06-17T10:09:41.636Z,21.82
2018-06-17T10:11:10.408Z,21.97
2018-06-17T10:12:37.819Z,22.12
2018-06-17T10:14:04.583Z,22.26
2018-06-17T10:15:32.220Z,22.41
2018-06-17T10:16:59.763Z,22.53
2018-06-17T10:18:27.297Z,22.63
2018-06-17T10:19:55.954Z,22.72
2018-06-17T10:21:22.478Z,22.86
2018-06-17T10:22:50.041Z,22.94
2018-06-17T10:24:17.613Z,23.05
2018-06-17T10:25:45.393Z,23.20
2018-06-17T10:27:13.012Z,23.25
2018-06-17T10:28:40.462Z,23.23
2018-06-17T10:30:08.025Z,23.19
2018-06-17T10:31:35.577Z,23.18
2018-06-17T10:33:04.231Z,23.15
2018-06-17T10:34:30.714Z,23.12
2018-06-17T10:35:58.271Z,23.20
2018-06-17T10:37:26.033Z,23.28
2018-06-17T10:38:53.667Z,23.34
2018-06-17T10:40:21.097Z,23.39
2018-06-17T10:41:48.770Z,23.37
2018-06-17T10:43:17.208Z,23.29
2018-06-17T10:44:43.641Z,23.25
2018-06-17T10:46:11.274Z,23.16
2018-06-17T10:47:38.538Z,23.09
2018-06-17T10:49:07.176Z,23.02
2018-06-17T10:50:34.960Z,22.99
2018-06-17T10:52:01.345Z,22.97
2018-06-17T10:53:28.994Z,23.05
2018-06-17T10:54:57.504Z,23.21
2018-06-17T10:56:24.063Z,23.48
2018-06-17T10:57:51.721Z,23.80
2018-06-17T10:59:20.237Z,24.10
2018-06-17T11:00:46.735Z,24.35
2018-06-17T11:02:14.361Z,24.57
2018-06-17T11:03:42.135Z,24.75
2018-06-17T11:05:09.704Z,24.80
2018-06-17T11:06:37.185Z,24.84
2018-06-17T11:08:04.858Z,24.90
2018-06-17T11:09:32.455Z,25.05
2018-06-17T11:10:59.955Z,25.25
2018-06-17T11:12:27.188Z,25.47
2018-06-17T11:13:54.680Z,25.67
2018-06-17T11:15:22.258Z,25.78
2018-06-17T11:16:49.736Z,25.68
2018-06-17T11:18:17.174Z,25.57
2018-06-17T11:19:45.062Z,25.57
2018-06-17T11:21:13.501Z,25.68
2018-06-17T11:22:41.078Z,25.69
2018-06-17T11:24:07.822Z,25.76
2018-06-17T11:25:35.466Z,25.92
2018-06-17T11:27:04.421Z,26.03
2018-06-17T11:28:30.833Z,26.24
2018-06-17T11:29:59.477Z,26.55
2018-06-17T11:31:25.892Z,26.81
2018-06-17T11:32:53.612Z,27.04
2018-06-17T11:34:22.165Z,27.17
2018-06-17T11:35:48.760Z,27.22
2018-06-17T11:37:16.241Z,27.24
2018-06-17T11:38:44.066Z,27.36
2018-06-17T11:40:12.772Z,27.30
2018-06-17T11:41:40.470Z,27.36
2018-06-17T11:43:07.070Z,27.41
2018-06-17T11:44:34.851Z,27.38
2018-06-17T11:46:02.460Z,27.09
2018-06-17T11:47:31.239Z,26.72
2018-06-17T11:48:57.759Z,26.40
2018-06-17T11:50:25.420Z,26.20
2018-06-17T11:51:52.962Z,25.90
2018-06-17T11:53:20.456Z,25.61
2018-06-17T11:54:49.148Z,25.41
2018-06-17T11:56:16.728Z,25.20
2018-06-17T11:57:43.303Z,25.33
2018-06-17T11:59:10.937Z,25.59
2018-06-17T12:00:39.571Z,25.79
2018-06-17T12:02:07.259Z,26.03
2018-06-17T12:03:33.956Z,26.08
2018-06-17T12:05:01.615Z,26.04
2018-06-17T12:06:29.123Z,25.93
2018-06-17T12:07:56.632Z,25.82
2018-06-17T12:09:25.075Z,25.73
2018-06-17T12:10:52.802Z,25.76
2018-06-17T12:12:20.407Z,25.87
2018-06-17T12:13:46.835Z,25.87
2018-06-17T12:15:14.341Z,25.73
2018-06-17T12:16:41.767Z,25.40
2018-06-17T12:18:09.482Z,25.25
2018-06-17T12:19:36.815Z,25.19
2018-06-17T12:21:05.534Z,25.11
2018-06-17T12:22:32.161Z,25.08
2018-06-17T12:24:00.864Z,25.13
2018-06-17T12:25:27.628Z,25.31
2018-06-17T12:26:56.141Z,25.50
2018-06-17T12:28:22.810Z,25.53
2018-06-17T12:29:51.427Z,25.53
2018-06-17T12:31:17.944Z,25.48
2018-06-17T12:32:45.241Z,25.39
2018-06-17T12:34:13.950Z,25.27
2018-06-17T12:35:40.561Z,25.16
2018-06-17T12:37:08.295Z,25.06
2018-06-17T12:38:35.847Z,24.97
2018-06-17T12:40:03.513Z,24.85
2018-06-17T12:41:32.107Z,24.76
2018-06-17T12:42:58.665Z,24.72
2018-06-17T12:44:26.343Z,24.60
2018-06-17T12:45:53.826Z,24.56
2018-06-17T12:47:21.404Z,24.54
2018-06-17T12:48:49.916Z,24.52
2018-06-17T12:50:16.491Z,24.62
2018-06-17T12:51:43.576Z,24.69
2018-06-17T12:53:12.340Z,24.69
2018-06-17T12:54:38.948Z,24.76
2018-06-17T12:56:06.164Z,24.90
2018-06-17T12:57:33.979Z,25.03
2018-06-17T12:59:01.458Z,25.17
2018-06-17T13:00:28.944Z,25.29
2018-06-17T13:01:56.610Z,25.40
2018-06-17T13:03:24.271Z,25.38
2018-06-17T13:04:51.925Z,25.29
2018-06-17T13:06:19.383Z,25.23
2018-06-17T13:07:47.019Z,25.17
2018-06-17T13:09:14.609Z,25.08
2018-06-17T13:10:43.427Z,24.98
2018-06-17T13:12:10.064Z,24.91
2018-06-17T13:13:37.695Z,24.78
2018-06-17T13:15:05.286Z,24.67
2018-06-17T13:16:34.063Z,24.61
2018-06-17T13:18:00.393Z,24.58
2018-06-17T13:19:27.974Z,24.55
2018-06-17T13:20:56.432Z,24.55
2018-06-17T13:22:22.985Z,24.49
2018-06-17T13:23:50.548Z,24.43
2018-06-17T13:25:18.012Z,24.42
2018-06-17T13:26:45.719Z,24.42
2018-06-17T13:28:14.258Z,24.44
2018-06-17T13:29:41.884Z,24.53
2018-06-17T13:31:09.687Z,24.63
2018-06-17T13:32:37.242Z,24.72
2018-06-17T13:34:04.716Z,24.77
2018-06-17T13:35:32.376Z,24.77
2018-06-17T13:37:00.059Z,24.72
2018-06-17T13:38:29.627Z,24.66
2018-06-17T13:39:55.170Z,24.61
2018-06-17T13:41:22.850Z,24.58
2018-06-17T13:42:49.450Z,24.56
2018-06-17T13:44:16.653Z,24.57
2018-06-17T13:45:45.176Z,24.60
2018-06-17T13:47:12.689Z,24.64
2018-06-17T13:48:40.360Z,24.65
2018-06-17T13:50:06.973Z,24.67
2018-06-17T13:51:35.634Z,24.71
2018-06-17T13:53:02.200Z,24.72
2018-06-17T13:54:29.812Z,24.69
2018-06-17T13:55:57.667Z,24.68
2018-06-17T13:57:25.292Z,24.67
2018-06-17T13:58:52.908Z,24.63
2018-06-17T14:00:20.599Z,24.59
2018-06-17T14:01:48.232Z,24.57
2018-06-17T14:03:15.773Z,24.52
2018-06-17T14:04:43.415Z,24.44
2018-06-17T14:06:12.130Z,24.36
2018-06-17T14:07:38.506Z,24.35
2018-06-17T14:09:07.273Z,24.33
2018-06-17T14:10:33.920Z,24.33
2018-06-17T14:12:01.371Z,24.31
2018-06-17T14:13:28.927Z,24.30
2018-06-17T14:14:57.591Z,24.27
2018-06-17T14:16:23.929Z,24.30
2018-06-17T14:17:51.580Z,24.33
2018-06-17T14:19:20.289Z,24.33
2018-06-17T14:20:46.699Z,24.31
2018-06-17T14:22:14.445Z,24.30
2018-06-17T14:23:43.066Z,24.29
2018-06-17T14:25:09.574Z,24.30
2018-06-17T14:26:38.215Z,24.33
2018-06-17T14:28:05.871Z,24.34
2018-06-17T14:29:32.393Z,24.31
2018-06-17T14:30:59.942Z,24.30
2018-06-17T14:32:27.554Z,24.30
2018-06-17T14:33:54.965Z,24.29
2018-06-17T14:35:23.697Z,24.25
2018-06-17T14:36:51.347Z,24.24
2018-06-17T14:38:18.933Z,24.24
2018-06-17T14:39:45.217Z,24.23
2018-06-17T14:41:12.729Z,24.23
2018-06-17T14:42:41.371Z,24.22
2018-06-17T14:44:09.011Z,24.18
2018-06-17T14:45:36.619Z,24.14
2018-06-17T14:47:03.315Z,24.11
2018-06-17T14:48:31.950Z,24.08
2018-06-17T14:49:58.582Z,24.08
2018-06-17T14:51:26.060Z,24.07
2018-06-17T14:52:54.757Z,24.04
2018-06-17T14:54:22.339Z,23.99
2018-06-17T14:55:49.676Z,23.96
2018-06-17T14:57:17.068Z,23.96
2018-06-17T14:58:44.863Z,23.96
2018-06-17T15:00:12.583Z,23.93
2018-06-17T15:01:39.097Z,23.89
2018-06-17T15:03:06.621Z,23.85
2018-06-17T15:04:34.346Z,23.84
2018-06-17T15:06:02.031Z,23.85
2018-06-17T15:07:29.695Z,23.87
2018-06-17T15:08:58.070Z,23.86
2018-06-17T15:10:24.565Z,23.88
2018-06-17T15:11:52.082Z,23.86
2018-06-17T15:13:19.910Z,23.84
2018-06-17T15:14:47.351Z,23.82
2018-06-17T15:16:16.063Z,23.77
2018-06-17T15:17:42.737Z,23.70
2018-06-17T15:19:11.322Z,23.69
2018-06-17T15:20:38.897Z,23.70
2018-06-17T15:22:05.407Z,23.68
2018-06-17T15:23:33.095Z,23.64
2018-06-17T15:25:00.491Z,23.60
2018-06-17T15:26:27.835Z,23.59
2018-06-17T15:27:55.547Z,23.57
2018-06-17T15:29:23.054Z,23.56
2018-06-17T15:30:50.636Z,23.57
2018-06-17T15:32:18.215Z,23.57
2018-06-17T15:33:45.746Z,23.53
2018-06-17T15:35:14.215Z,23.48
2018-06-17T15:36:41.887Z,23.46
2018-06-17T15:38:09.451Z,23.47
2018-06-17T15:39:36.143Z,23.49
2018-06-17T15:41:03.758Z,23.51
2018-06-17T15:42:32.461Z,23.52
2018-06-17T15:43:59.823Z,23.51
2018-06-17T15:45:26.490Z,23.49
2018-06-17T15:46:54.035Z,23.48
2018-06-17T15:48:21.656Z,23.49
2018-06-17T15:49:49.223Z,23.51
2018-06-17T15:51:17.792Z,23.50
2018-06-17T15:52:44.376Z,23.48
2018-06-17T15:54:11.988Z,23.47
2018-06-17T15:55:39.494Z,23.46
2018-06-17T15:57:06.912Z,23.46
2018-06-17T15:58:34.465Z,23.44
2018-06-17T16:00:02.176Z,23.41
2018-06-17T16:01:30.647Z,23.40
2018-06-17T16:02:57.162Z,23.38
2018-06-17T16:04:25.774Z,23.37
2018-06-17T16:05:53.511Z,23.36
2018-06-17T16:07:20.334Z,23.34
2018-06-17T16:08:48.936Z,23.29
2018-06-17T16:10:16.431Z,23.27
2018-06-17T16:11:42.965Z,23.25
2018-06-17T16:13:11.638Z,23.19
2018-06-17T16:14:38.157Z,23.18
2018-06-17T16:16:06.884Z,23.18
2018-06-17T16:17:33.391Z,23.18
2018-06-17T16:19:01.171Z,23.17
2018-06-17T16:20:29.816Z,23.13
2018-06-17T16:21:57.363Z,23.04
2018-06-17T16:23:23.922Z,22.94
2018-06-17T16:24:51.587Z,22.81
2018-06-17T16:26:20.167Z,22.63
2018-06-17T16:27:46.677Z,22.54
2018-06-17T16:29:14.180Z,22.44
2018-06-17T16:30:42.760Z,22.35
2018-06-17T16:32:09.577Z,22.25
2018-06-17T16:33:37.304Z,22.16
2018-06-17T16:35:05.783Z,22.11
2018-06-17T16:36:33.132Z,22.06
2018-06-17T16:37:59.885Z,22.00
2018-06-17T16:39:27.203Z,21.97
2018-06-17T16:40:54.869Z,21.94
2018-06-17T16:42:22.250Z,21.90
2018-06-17T16:43:50.598Z,21.87
2018-06-17T16:45:17.137Z,21.84
2018-06-17T16:46:45.473Z,21.80
2018-06-17T16:48:12.143Z,21.75
2018-06-17T16:49:39.709Z,21.69
2018-06-17T16:51:07.136Z,21.64
2018-06-17T16:52:34.824Z,21.60
2018-06-17T16:54:02.394Z,21.55
2018-06-17T16:55:31.052Z,21.50
2018-06-17T16:56:57.509Z,21.48
2018-06-17T16:58:26.106Z,21.45
2018-06-17T16:59:52.452Z,21.42
2018-06-17T17:01:21.028Z,21.37
2018-06-17T17:02:48.555Z,21.32
2018-06-17T17:04:16.392Z,21.29
2018-06-17T17:05:42.835Z,21.27
2018-06-17T17:07:11.384Z,21.23
2018-06-17T17:08:38.902Z,21.20
2018-06-17T17:10:05.582Z,21.17
2018-06-17T17:11:34.244Z,21.15
2018-06-17T17:13:00.790Z,21.12
2018-06-17T17:14:28.221Z,21.09
2018-06-17T17:15:55.719Z,21.01
2018-06-17T17:17:23.345Z,20.96
2018-06-17T17:18:51.053Z,20.90
2018-06-17T17:20:19.626Z,20.85
2018-06-17T17:21:46.071Z,20.83
2018-06-17T17:23:13.770Z,20.82
2018-06-17T17:24:41.153Z,20.81
2018-06-17T17:26:08.740Z,20.78
2018-06-17T17:27:36.214Z,20.77
2018-06-17T17:29:03.849Z,20.75
2018-06-17T17:30:31.289Z,20.72
2018-06-17T17:31:58.847Z,20.71
2018-06-17T17:33:26.625Z,20.73
2018-06-17T17:34:54.140Z,20.74
2018-06-17T17:36:21.887Z,20.74
2018-06-17T17:37:49.363Z,20.73
2018-06-17T17:39:16.900Z,20.72
2018-06-17T17:40:45.568Z,20.70
2018-06-17T17:42:12.091Z,20.68
2018-06-17T17:43:39.644Z,20.66
2018-06-17T17:45:07.234Z,20.64
2018-06-17T17:46:35.688Z,20.64
2018-06-17T17:48:02.116Z,20.65
2018-06-17T17:49:30.810Z,20.62
2018-06-17T17:50:57.167Z,20.61
2018-06-17T17:52:24.756Z,20.61
2018-06-17T17:53:52.412Z,20.61
2018-06-17T17:55:21.004Z,20.61
2018-06-17T17:56:47.588Z,20.61
2018-06-17T17:58:16.093Z,20.61
2018-06-17T17:59:42.558Z,20.59
2018-06-17T18:01:09.916Z,20.58
2018-06-17T18:02:38.446Z,20.57
2018-06-17T18:04:05.165Z,20.56
2018-06-17T18:05:32.726Z,20.55
2018-06-17T18:07:00.280Z,20.56
2018-06-17T18:08:27.976Z,20.57
2018-06-17T18:09:55.357Z,20.57
2018-06-17T18:11:23.984Z,20.55
2018-06-17T18:12:51.383Z,20.53
2018-06-17T18:14:19.032Z,20.50
2018-06-17T18:15:46.378Z,20.48
2018-06-17T18:17:13.907Z,20.45
2018-06-17T18:18:41.571Z,20.44
2018-06-17T18:20:09.023Z,20.38
2018-06-17T18:21:36.575Z,20.34
2018-06-17T18:23:04.136Z,20.32
2018-06-17T18:24:30.792Z,20.28
2018-06-17T18:25:58.191Z,20.27
2018-06-17T18:27:26.701Z,20.24
2018-06-17T18:28:53.186Z,20.23
2018-06-17T18:30:20.678Z,20.21
2018-06-17T18:31:48.073Z,20.21
2018-06-17T18:33:15.559Z,20.20
2018-06-17T18:34:42.701Z,20.21
2018-06-17T18:36:10.323Z,20.21
2018-06-17T18:37:38.989Z,20.20
2018-06-17T18:39:06.397Z,20.20
2018-06-17T18:40:32.751Z,20.19
2018-06-17T18:42:00.154Z,20.16
2018-06-17T18:43:28.656Z,20.13
2018-06-17T18:44:55.200Z,20.10
2018-06-17T18:46:22.761Z,20.06